Terminal Aerodrome Forecast
Issued by NWS

Home | Current Version | Previous Version | Text Only | Print | Product List | Glossary On
Versions: 1 2 3 4 5 6 7 8 9 10 11 12 13 14 15 16 17 18 19 20 21 22 23 24 25 26 27 28 29 30 31 32 33 34 35 36 37 38 39
000
FTUS45 KPSR 051141
TAFIWA
TAF
KIWA 051141Z 0512/0612 VRB05KT P6SM FEW060 SCT120 OVC250
      TEMPO 0512/0516 SCT060 BKN120
     FM052100 18006KT P6SM VCSH SCT100 BKN200
     FM052300 21007KT P6SM VCTS SCT100CB BKN150 BKN200
     FM060300 14005KT P6SM FEW100 SCT150 BKN250
      AMD LTD TO CLD VIS AND WIND TIL 051300=

USA.gov is the U.S. government's official web portal to all federal, state and local government web resources and services.